createdAt,value
2022-11-26T00:02:18.928Z,10.71
2022-11-26T00:04:48.009Z,10.63
2022-11-26T00:07:19.208Z,10.34
2022-11-26T00:09:46.667Z,10.26
2022-11-26T00:12:16.893Z,10.27
2022-11-26T00:14:44.591Z,9.91
2022-11-26T00:17:13.200Z,10.39
2022-11-26T00:19:41.259Z,10.55
2022-11-26T00:22:21.947Z,10.54
2022-11-26T00:24:50.442Z,10.14
2022-11-26T00:27:18.010Z,10.63
2022-11-26T00:29:45.496Z,9.88
2022-11-26T00:32:16.827Z,9.68
2022-11-26T00:34:44.345Z,10.04
2022-11-26T00:37:20.461Z,10.21
2022-11-26T00:39:48.253Z,10.41
2022-11-26T00:42:15.726Z,9.82
2022-11-26T00:44:43.135Z,10.02
2022-11-26T00:47:10.910Z,10.16
2022-11-26T00:49:38.514Z,10.04
2022-11-26T00:52:15.652Z,10.22
2022-11-26T00:54:44.488Z,10.61
2022-11-26T00:57:12.054Z,10.07
2022-11-26T00:59:39.487Z,10.30
2022-11-26T01:02:07.010Z,10.45
2022-11-26T01:04:34.907Z,10.54
2022-11-26T01:07:02.631Z,10.44
2022-11-26T01:09:30.117Z,10.69
2022-11-26T01:11:58.840Z,10.79
2022-11-26T01:14:26.372Z,10.40
2022-11-26T01:16:56.770Z,10.27
2022-11-26T01:19:24.418Z,9.92
2022-11-26T01:21:51.789Z,9.91
2022-11-26T01:24:19.173Z,10.28
2022-11-26T01:26:46.757Z,10.35
2022-11-26T01:29:17.947Z,9.85
2022-11-26T01:31:45.883Z,9.93
2022-11-26T01:34:13.605Z,10.32
2022-11-26T01:36:42.333Z,10.67
2022-11-26T01:39:16.171Z,10.32
2022-11-26T01:41:46.837Z,10.10
2022-11-26T01:44:20.166Z,10.43
2022-11-26T01:46:48.216Z,10.63
2022-11-26T01:49:18.032Z,10.41
2022-11-26T01:51:46.987Z,10.53
2022-11-26T01:54:15.526Z,10.40
2022-11-26T01:56:46.536Z,10.71
2022-11-26T01:59:22.896Z,10.91
2022-11-26T02:01:52.386Z,10.86
2022-11-26T02:04:22.547Z,11.13
2022-11-26T02:06:52.202Z,11.14
2022-11-26T02:09:20.217Z,11.17
2022-11-26T02:11:47.778Z,11.10
2022-11-26T02:14:18.854Z,11.08
2022-11-26T02:16:59.062Z,11.08
2022-11-26T02:19:46.406Z,11.15
2022-11-26T02:22:32.828Z,11.08
2022-11-26T02:25:13.066Z,11.20
2022-11-26T02:28:03.493Z,10.84
2022-11-26T02:30:43.392Z,10.89
2022-11-26T02:33:17.130Z,10.82
2022-11-26T02:35:48.311Z,10.89
2022-11-26T02:38:21.433Z,11.05
2022-11-26T02:40:49.228Z,11.17
2022-11-26T02:43:17.650Z,11.22
2022-11-26T02:45:49.270Z,11.08
2022-11-26T02:48:22.936Z,10.56
2022-11-26T02:50:54.948Z,10.72
2022-11-26T02:53:24.697Z,10.25
2022-11-26T02:55:56.509Z,10.89
2022-11-26T02:58:23.932Z,10.75
2022-11-26T03:00:55.191Z,10.50
2022-11-26T03:03:26.181Z,10.44
2022-11-26T03:05:57.255Z,10.61
2022-11-26T03:08:26.478Z,10.93
2022-11-26T03:10:54.002Z,10.70
2022-11-26T03:13:21.534Z,10.74
2022-11-26T03:15:49.159Z,10.71
2022-11-26T03:18:18.062Z,10.22
2022-11-26T03:20:45.498Z,10.00
2022-11-26T03:23:13.047Z,9.97
2022-11-26T03:25:40.496Z,9.97
2022-11-26T03:28:08.168Z,9.95
2022-11-26T03:30:35.842Z,10.01
2022-11-26T03:33:03.292Z,10.27
2022-11-26T03:35:32.014Z,9.77
2022-11-26T03:37:59.403Z,10.05
2022-11-26T03:40:26.846Z,10.43
2022-11-26T03:42:54.271Z,10.70
2022-11-26T03:45:21.685Z,10.87
2022-11-26T03:47:49.125Z,11.03
2022-11-26T03:50:16.685Z,10.73
2022-11-26T03:52:45.446Z,11.04
2022-11-26T03:55:12.827Z,10.78
2022-11-26T03:57:40.234Z,10.88
2022-11-26T04:00:09.883Z,10.60
2022-11-26T04:02:38.190Z,10.68
2022-11-26T04:05:06.833Z,10.46
2022-11-26T04:07:34.280Z,10.76
2022-11-26T04:10:03.272Z,10.68
2022-11-26T04:12:30.673Z,10.87
2022-11-26T04:14:58.075Z,10.72
2022-11-26T04:17:25.560Z,10.79
2022-11-26T04:19:53.087Z,10.76
2022-11-26T04:22:20.531Z,10.19
2022-11-26T04:24:48.002Z,10.30
2022-11-26T04:27:16.714Z,10.31
2022-11-26T04:29:44.111Z,10.34
2022-11-26T04:32:11.563Z,10.47
2022-11-26T04:34:39.240Z,10.58
2022-11-26T04:37:06.852Z,10.00
2022-11-26T04:39:34.503Z,10.18
2022-11-26T04:42:01.918Z,9.91
2022-11-26T04:44:30.692Z,10.09
2022-11-26T04:46:58.087Z,10.21
2022-11-26T04:49:25.778Z,10.24
2022-11-26T04:51:53.251Z,10.86
2022-11-26T04:54:20.682Z,10.13
2022-11-26T04:56:48.078Z,9.92
2022-11-26T04:59:15.479Z,9.96
2022-11-26T05:01:44.522Z,9.89
2022-11-26T05:04:12.059Z,9.92
2022-11-26T05:06:39.437Z,9.54
2022-11-26T05:09:06.907Z,9.44
2022-11-26T05:11:34.297Z,9.86
2022-11-26T05:14:01.742Z,9.96
2022-11-26T05:16:29.310Z,9.58
2022-11-26T05:18:58.092Z,9.69
2022-11-26T05:21:25.532Z,9.64
2022-11-26T05:23:52.984Z,9.64
2022-11-26T05:26:20.549Z,9.52
2022-11-26T05:28:48.068Z,9.36
2022-11-26T05:31:15.531Z,9.74
2022-11-26T05:33:43.049Z,9.60
2022-11-26T05:36:11.842Z,9.93
2022-11-26T05:38:39.230Z,9.75
2022-11-26T05:41:06.652Z,9.68
2022-11-26T05:43:34.070Z,9.33
2022-11-26T05:46:04.950Z,9.26
2022-11-26T05:48:32.504Z,9.37
2022-11-26T05:51:00.723Z,9.19
2022-11-26T05:53:30.420Z,9.39
2022-11-26T05:55:57.856Z,9.47
2022-11-26T05:58:25.466Z,9.29
2022-11-26T06:00:53.026Z,9.59
2022-11-26T06:03:20.823Z,9.48
2022-11-26T06:05:48.611Z,9.33
2022-11-26T06:08:16.016Z,9.53
2022-11-26T06:10:45.423Z,9.84
2022-11-26T06:13:12.844Z,9.84
2022-11-26T06:15:40.280Z,9.64
2022-11-26T06:18:07.697Z,9.68
2022-11-26T06:20:35.452Z,9.85
2022-11-26T06:23:02.898Z,9.88
2022-11-26T06:25:30.311Z,10.41
2022-11-26T06:27:59.048Z,10.35
2022-11-26T06:30:26.408Z,9.92
2022-11-26T06:32:53.848Z,9.80
2022-11-26T06:35:21.238Z,10.19
2022-11-26T06:37:48.686Z,9.91
2022-11-26T06:40:18.204Z,9.84
2022-11-26T06:42:49.318Z,9.62
2022-11-26T06:45:18.510Z,9.49
2022-11-26T06:47:47.475Z,10.06
2022-11-26T06:50:15.562Z,9.68
2022-11-26T06:52:42.973Z,10.14
2022-11-26T06:55:10.807Z,10.18
2022-11-26T06:57:38.272Z,10.99
2022-11-26T07:00:07.122Z,11.20
2022-11-26T07:02:35.946Z,11.27
2022-11-26T07:05:03.443Z,10.97
2022-11-26T07:07:30.981Z,10.65
2022-11-26T07:09:58.427Z,10.26
2022-11-26T07:12:25.845Z,9.93
2022-11-26T07:14:53.255Z,10.15
2022-11-26T07:17:20.635Z,9.85
2022-11-26T07:19:50.064Z,9.59
2022-11-26T07:22:17.570Z,9.40
2022-11-26T07:24:44.967Z,9.63
2022-11-26T07:27:12.405Z,9.31
2022-11-26T07:29:39.806Z,9.33
2022-11-26T07:32:07.223Z,9.76
2022-11-26T07:34:34.870Z,9.66
2022-11-26T07:37:03.620Z,9.87
2022-11-26T07:39:31.146Z,9.64
2022-11-26T07:41:58.545Z,9.32
2022-11-26T07:44:25.989Z,10.20
2022-11-26T07:46:53.578Z,10.10
2022-11-26T07:49:20.993Z,10.19
2022-11-26T07:51:48.425Z,9.96
2022-11-26T07:54:17.175Z,10.31
2022-11-26T07:56:44.537Z,9.96
2022-11-26T07:59:12.184Z,10.27
2022-11-26T08:01:39.858Z,9.85
2022-11-26T08:04:07.954Z,10.25
2022-11-26T08:06:35.520Z,10.13
2022-11-26T08:09:04.734Z,9.87
2022-11-26T08:11:34.314Z,10.12
2022-11-26T08:14:04.510Z,10.36
2022-11-26T08:16:32.495Z,10.66
2022-11-26T08:19:02.287Z,9.99
2022-11-26T08:21:29.730Z,10.28
2022-11-26T08:23:57.166Z,9.93
2022-11-26T08:26:38.444Z,10.47
2022-11-26T08:29:08.556Z,10.01
2022-11-26T08:31:39.941Z,10.78
2022-11-26T08:34:13.848Z,10.11
2022-11-26T08:36:41.327Z,9.85
2022-11-26T08:39:10.055Z,10.30
2022-11-26T08:41:37.464Z,10.15
2022-11-26T08:44:06.673Z,10.31
2022-11-26T08:46:36.253Z,10.54
2022-11-26T08:49:04.403Z,10.44
2022-11-26T08:51:31.821Z,10.40
2022-11-26T08:53:59.224Z,10.48
2022-11-26T08:56:27.030Z,10.63
2022-11-26T08:58:54.451Z,11.10
2022-11-26T09:01:24.445Z,10.90
2022-11-26T09:03:55.357Z,10.44
2022-11-26T09:06:24.865Z,10.23
2022-11-26T09:09:10.057Z,10.20
2022-11-26T09:11:40.087Z,10.27
2022-11-26T09:14:08.356Z,10.61
2022-11-26T09:16:36.024Z,10.87
2022-11-26T09:19:06.180Z,10.36
2022-11-26T09:21:34.345Z,10.36
2022-11-26T09:24:02.027Z,10.17
2022-11-26T09:26:31.161Z,10.24
2022-11-26T09:28:58.728Z,10.86
2022-11-26T09:31:26.765Z,10.47
2022-11-26T09:33:56.083Z,9.68
2022-11-26T09:36:24.981Z,10.10
2022-11-26T09:38:54.626Z,9.90
2022-11-26T09:41:38.968Z,10.31
2022-11-26T09:44:16.217Z,10.07
2022-11-26T09:47:11.094Z,9.87
2022-11-26T09:49:45.012Z,9.99
2022-11-26T09:52:18.211Z,9.92
2022-11-26T09:54:46.630Z,10.07
2022-11-26T09:57:22.690Z,9.79
2022-11-26T09:59:52.913Z,10.47
2022-11-26T10:02:20.335Z,10.28
2022-11-26T10:04:49.002Z,10.37
2022-11-26T10:07:37.287Z,9.82
2022-11-26T10:10:14.493Z,9.18
2022-11-26T10:13:17.410Z,9.46
2022-11-26T10:15:44.935Z,8.96
2022-11-26T10:18:24.339Z,9.47
2022-11-26T10:21:14.473Z,9.20
2022-11-26T10:23:48.699Z,9.28
2022-11-26T10:26:17.750Z,9.34
2022-11-26T10:28:47.154Z,9.59
2022-11-26T10:31:21.545Z,9.32
2022-11-26T10:33:55.636Z,8.98
2022-11-26T10:36:28.616Z,9.11
2022-11-26T10:38:57.372Z,9.42
2022-11-26T10:41:27.200Z,10.50
2022-11-26T10:43:54.716Z,11.93
2022-11-26T10:46:34.174Z,12.75
2022-11-26T10:49:16.719Z,12.86
2022-11-26T10:51:49.378Z,13.15
2022-11-26T10:54:30.739Z,12.87
2022-11-26T10:57:04.965Z,13.22
2022-11-26T10:59:37.907Z,13.18
2022-11-26T11:02:23.509Z,13.38
2022-11-26T11:04:53.677Z,13.14
2022-11-26T11:07:42.760Z,13.36
2022-11-26T11:10:18.284Z,13.63
2022-11-26T11:12:50.303Z,13.02
2022-11-26T11:15:25.000Z,12.12
2022-11-26T11:17:59.037Z,11.37
2022-11-26T11:20:35.591Z,10.35
2022-11-26T11:23:07.157Z,10.77
2022-11-26T11:25:38.416Z,10.90
2022-11-26T11:28:15.386Z,10.88
2022-11-26T11:30:44.406Z,9.70
2022-11-26T11:33:18.652Z,9.90
2022-11-26T11:35:51.078Z,9.96
2022-11-26T11:38:24.330Z,10.09
2022-11-26T11:40:53.241Z,10.63
2022-11-26T11:43:23.058Z,10.56
2022-11-26T11:46:08.927Z,10.91
2022-11-26T11:48:46.855Z,10.64
2022-11-26T11:51:21.291Z,10.64
2022-11-26T11:53:57.420Z,10.99
2022-11-26T11:56:32.050Z,11.14
2022-11-26T11:59:37.057Z,11.08
2022-11-26T12:02:23.775Z,11.30
2022-11-26T12:05:21.432Z,11.11
2022-11-26T12:07:59.095Z,11.10
2022-11-26T12:10:35.793Z,11.11
2022-11-26T12:13:10.784Z,10.86
2022-11-26T12:15:46.094Z,10.93
2022-11-26T12:18:23.453Z,10.50
2022-11-26T12:20:55.075Z,9.92
2022-11-26T12:23:30.616Z,10.58
2022-11-26T12:26:06.268Z,10.90
2022-11-26T12:28:41.016Z,10.00
2022-11-26T12:31:13.872Z,10.38
2022-11-26T12:33:47.348Z,10.13
2022-11-26T12:36:21.355Z,10.15
2022-11-26T12:38:54.092Z,10.40
2022-11-26T12:41:26.259Z,10.82
2022-11-26T12:44:02.222Z,11.13
2022-11-26T12:46:35.903Z,10.42
2022-11-26T12:49:11.138Z,10.66
2022-11-26T12:51:44.296Z,10.41
2022-11-26T12:54:17.643Z,10.47
2022-11-26T12:56:55.301Z,11.18
2022-11-26T12:59:31.853Z,10.85
2022-11-26T13:01:59.840Z,10.28
2022-11-26T13:04:37.663Z,10.90
2022-11-26T13:07:18.460Z,11.34
2022-11-26T13:09:59.039Z,11.30
2022-11-26T13:12:37.260Z,11.47
2022-11-26T13:15:12.589Z,11.72
2022-11-26T13:17:43.771Z,11.59
2022-11-26T13:20:29.935Z,11.84
2022-11-26T13:23:09.490Z,11.47
2022-11-26T13:25:56.108Z,11.35
2022-11-26T13:28:36.132Z,11.24
2022-11-26T13:31:24.240Z,11.53
2022-11-26T13:34:07.296Z,11.82
2022-11-26T13:36:57.751Z,11.62
2022-11-26T13:39:53.608Z,11.64
2022-11-26T13:42:42.285Z,10.52
2022-11-26T13:45:35.825Z,10.07
2022-11-26T13:48:10.348Z,10.09
2022-11-26T13:50:44.819Z,10.44
2022-11-26T13:53:16.894Z,10.00
2022-11-26T13:55:48.833Z,10.44
2022-11-26T13:58:21.895Z,10.46
2022-11-26T14:00:49.340Z,10.16
2022-11-26T14:03:46.393Z,9.62
2022-11-26T14:06:15.042Z,9.52
2022-11-26T14:08:44.959Z,9.72
2022-11-26T14:11:18.382Z,10.18
2022-11-26T14:14:26.909Z,9.84
2022-11-26T14:17:14.523Z,10.08
2022-11-26T14:20:09.565Z,10.11
2022-11-26T14:22:38.731Z,10.45
2022-11-26T14:25:09.804Z,11.14
2022-11-26T14:27:40.713Z,10.80
2022-11-26T14:30:25.509Z,10.49
2022-11-26T14:33:09.430Z,11.08
2022-11-26T14:35:41.566Z,11.40
2022-11-26T14:38:25.957Z,11.46
2022-11-26T14:40:58.414Z,11.33
2022-11-26T14:43:25.846Z,11.25
2022-11-26T14:46:04.809Z,11.21
2022-11-26T14:48:36.364Z,11.54
2022-11-26T14:51:09.324Z,11.51
2022-11-26T14:53:41.297Z,11.46
2022-11-26T14:56:10.780Z,11.36
2022-11-26T14:58:43.221Z,11.57
2022-11-26T15:01:19.875Z,10.98
2022-11-26T15:03:59.012Z,12.21
2022-11-26T15:06:30.229Z,11.96
2022-11-26T15:09:10.890Z,12.62
2022-11-26T15:11:41.563Z,12.64
2022-11-26T15:14:19.524Z,12.29
2022-11-26T15:16:54.380Z,11.82
2022-11-26T15:19:22.577Z,11.56
2022-11-26T15:21:52.031Z,12.85
2022-11-26T15:24:19.876Z,12.47
2022-11-26T15:26:48.840Z,12.41
2022-11-26T15:29:34.936Z,13.03
2022-11-26T15:32:03.097Z,12.54
2022-11-26T15:34:33.124Z,12.89
2022-11-26T15:37:02.040Z,12.48
2022-11-26T15:39:31.534Z,13.21
2022-11-26T15:42:04.408Z,12.67
2022-11-26T15:44:40.557Z,13.13
2022-11-26T15:47:20.899Z,13.25
2022-11-26T15:49:52.015Z,12.57
2022-11-26T15:52:23.538Z,12.82
2022-11-26T15:55:15.664Z,12.64
2022-11-26T15:57:44.728Z,13.02
2022-11-26T16:00:22.157Z,12.79
2022-11-26T16:02:51.456Z,13.31
2022-11-26T16:05:30.505Z,12.96
2022-11-26T16:08:02.237Z,12.55
2022-11-26T16:10:35.294Z,12.42
2022-11-26T16:13:08.895Z,12.56
2022-11-26T16:15:36.959Z,11.98
2022-11-26T16:18:13.034Z,11.81
2022-11-26T16:20:40.649Z,11.82
2022-11-26T16:23:22.399Z,11.74
2022-11-26T16:26:13.256Z,11.14
2022-11-26T16:28:40.793Z,11.63
2022-11-26T16:31:08.518Z,11.59
2022-11-26T16:33:36.228Z,11.73
2022-11-26T16:36:16.477Z,11.79
2022-11-26T16:38:45.906Z,11.65
2022-11-26T16:41:14.853Z,11.35
2022-11-26T16:43:42.768Z,10.90
2022-11-26T16:46:14.967Z,10.93
2022-11-26T16:48:44.282Z,11.31
2022-11-26T16:51:14.013Z,11.13
2022-11-26T16:53:41.618Z,11.40
2022-11-26T16:56:18.967Z,11.62
2022-11-26T16:58:47.256Z,11.65
2022-11-26T17:01:14.764Z,11.73
2022-11-26T17:03:48.205Z,11.79
2022-11-26T17:06:25.011Z,11.66
2022-11-26T17:08:55.162Z,11.60
2022-11-26T17:11:24.758Z,11.67
2022-11-26T17:13:52.327Z,11.57
2022-11-26T17:16:22.098Z,11.51
2022-11-26T17:18:53.015Z,11.55
2022-11-26T17:21:20.855Z,11.63
2022-11-26T17:23:48.380Z,11.63
2022-11-26T17:26:20.574Z,11.75
2022-11-26T17:28:49.983Z,11.59
2022-11-26T17:31:17.807Z,11.69
2022-11-26T17:33:45.427Z,11.67
2022-11-26T17:36:17.240Z,11.68
2022-11-26T17:38:45.546Z,11.63
2022-11-26T17:41:13.290Z,11.74
2022-11-26T17:43:40.880Z,11.81
2022-11-26T17:46:15.842Z,11.76
2022-11-26T17:48:43.841Z,11.83
2022-11-26T17:51:14.224Z,11.66
2022-11-26T17:53:42.514Z,11.69
2022-11-26T17:56:17.309Z,11.63
2022-11-26T17:58:45.198Z,11.63
2022-11-26T18:01:14.850Z,11.63
2022-11-26T18:03:42.658Z,11.56
2022-11-26T18:06:15.700Z,11.60
2022-11-26T18:08:43.447Z,11.65
2022-11-26T18:11:12.023Z,11.66
2022-11-26T18:13:39.672Z,11.66
2022-11-26T18:16:07.315Z,11.66
2022-11-26T18:18:36.189Z,11.47
2022-11-26T18:21:03.693Z,11.11
2022-11-26T18:23:31.504Z,11.50
2022-11-26T18:25:58.901Z,11.65
2022-11-26T18:28:26.312Z,11.81
2022-11-26T18:30:58.167Z,11.92
2022-11-26T18:33:27.101Z,11.80
2022-11-26T18:35:58.782Z,11.73
2022-11-26T18:38:30.761Z,11.76
2022-11-26T18:41:05.592Z,11.69
2022-11-26T18:43:33.533Z,11.54
2022-11-26T18:46:04.055Z,11.59
2022-11-26T18:48:34.240Z,11.56
2022-11-26T18:51:03.463Z,11.64
2022-11-26T18:53:31.513Z,11.42
2022-11-26T18:55:59.791Z,11.52
2022-11-26T18:58:30.944Z,10.90
2022-11-26T19:00:59.555Z,11.33
2022-11-26T19:03:28.174Z,11.37
2022-11-26T19:05:56.140Z,11.50
2022-11-26T19:08:28.075Z,11.63
2022-11-26T19:10:55.474Z,11.42
2022-11-26T19:13:27.577Z,11.57
2022-11-26T19:16:02.206Z,11.70
2022-11-26T19:18:30.645Z,12.30
2022-11-26T19:21:00.359Z,12.45
2022-11-26T19:23:29.452Z,12.47
2022-11-26T19:25:57.019Z,12.47
2022-11-26T19:28:26.346Z,12.56
2022-11-26T19:31:05.086Z,12.40
2022-11-26T19:33:33.399Z,11.99
2022-11-26T19:36:04.868Z,12.07
2022-11-26T19:38:34.042Z,11.82
2022-11-26T19:41:02.418Z,11.94
2022-11-26T19:43:31.901Z,11.99
2022-11-26T19:46:03.774Z,11.68
2022-11-26T19:48:34.608Z,11.25
2022-11-26T19:51:02.566Z,11.87
2022-11-26T19:53:30.111Z,11.90
2022-11-26T19:56:02.535Z,11.88
2022-11-26T19:58:31.197Z,11.84
2022-11-26T20:00:59.099Z,11.73
2022-11-26T20:03:29.845Z,11.04
2022-11-26T20:06:06.063Z,11.36
2022-11-26T20:08:34.436Z,11.73
2022-11-26T20:11:08.893Z,11.97
2022-11-26T20:13:38.011Z,12.04
2022-11-26T20:16:07.063Z,11.52
2022-11-26T20:18:34.842Z,11.45
2022-11-26T20:21:03.937Z,11.65
2022-11-26T20:23:34.762Z,11.90
2022-11-26T20:26:02.513Z,11.70
2022-11-26T20:28:31.484Z,11.43
2022-11-26T20:30:59.004Z,11.87
2022-11-26T20:33:26.823Z,11.69
2022-11-26T20:35:55.631Z,11.78
2022-11-26T20:38:23.399Z,11.41
2022-11-26T20:41:00.073Z,11.79
2022-11-26T20:43:35.494Z,10.31
2022-11-26T20:46:06.590Z,11.27
2022-11-26T20:48:39.010Z,11.70
2022-11-26T20:51:08.657Z,11.89
2022-11-26T20:53:37.676Z,11.87
2022-11-26T20:56:06.367Z,11.64
2022-11-26T20:58:33.929Z,11.87
2022-11-26T21:01:01.469Z,11.84
2022-11-26T21:03:31.876Z,11.69
2022-11-26T21:06:02.869Z,11.93
2022-11-26T21:08:30.478Z,12.08
2022-11-26T21:10:57.847Z,12.10
2022-11-26T21:13:25.311Z,11.65
2022-11-26T21:15:52.671Z,11.78
2022-11-26T21:18:20.267Z,11.93
2022-11-26T21:20:48.983Z,11.87
2022-11-26T21:23:16.412Z,12.00
2022-11-26T21:25:44.337Z,11.32
2022-11-26T21:28:14.768Z,11.81
2022-11-26T21:30:42.946Z,11.79
2022-11-26T21:33:10.438Z,11.81
2022-11-26T21:35:38.436Z,11.91
2022-11-26T21:38:07.228Z,12.07
2022-11-26T21:40:34.715Z,11.79
2022-11-26T21:43:02.349Z,11.72
2022-11-26T21:45:30.008Z,11.84
2022-11-26T21:47:57.434Z,11.96
2022-11-26T21:50:24.812Z,11.89
2022-11-26T21:52:52.246Z,11.87
2022-11-26T21:55:22.119Z,11.80
2022-11-26T21:57:49.606Z,11.81
2022-11-26T22:00:18.253Z,11.97
2022-11-26T22:02:45.806Z,11.70
2022-11-26T22:05:13.329Z,11.90
2022-11-26T22:07:40.837Z,11.80
2022-11-26T22:10:09.871Z,11.84
2022-11-26T22:12:38.667Z,11.70
2022-11-26T22:15:06.994Z,11.63
2022-11-26T22:17:34.452Z,11.75
2022-11-26T22:20:01.850Z,11.65
2022-11-26T22:22:29.353Z,11.48
2022-11-26T22:24:56.791Z,11.09
2022-11-26T22:27:24.318Z,11.45
2022-11-26T22:29:53.131Z,11.64
2022-11-26T22:32:21.741Z,11.69
2022-11-26T22:34:49.145Z,11.76
2022-11-26T22:37:16.604Z,11.91
2022-11-26T22:39:44.030Z,11.93
2022-11-26T22:42:13.747Z,11.44
2022-11-26T22:44:41.219Z,11.54
2022-11-26T22:47:10.123Z,11.16
2022-11-26T22:49:38.552Z,11.00
2022-11-26T22:52:06.370Z,11.40
2022-11-26T22:54:33.773Z,11.54
2022-11-26T22:57:01.299Z,11.19
2022-11-26T22:59:28.811Z,11.57
2022-11-26T23:01:56.801Z,11.12
2022-11-26T23:04:25.571Z,11.61
2022-11-26T23:06:52.968Z,11.47
2022-11-26T23:09:20.410Z,11.63
2022-11-26T23:11:47.869Z,11.62
2022-11-26T23:14:15.341Z,11.25
2022-11-26T23:16:43.907Z,11.57
2022-11-26T23:19:14.710Z,11.58
2022-11-26T23:21:44.704Z,10.70
2022-11-26T23:24:12.327Z,11.47
2022-11-26T23:26:41.242Z,11.57
2022-11-26T23:29:10.077Z,11.72
2022-11-26T23:31:39.836Z,11.64
2022-11-26T23:34:08.945Z,11.53
2022-11-26T23:36:37.411Z,11.35
2022-11-26T23:39:07.992Z,11.31
2022-11-26T23:41:35.489Z,11.69
2022-11-26T23:44:03.430Z,11.64
2022-11-26T23:46:33.082Z,11.38
2022-11-26T23:49:00.499Z,10.98
2022-11-26T23:51:31.345Z,11.40
2022-11-26T23:53:59.187Z,11.53
2022-11-26T23:56:30.116Z,11.40
2022-11-26T23:58:59.362Z,11.52
